sensor_id;sensor_type;location;lat;lon;timestamp;P1;durP1;ratioP1;P2;durP2;ratioP2
54125;SDS011;40360;52.992;6.796;2023-01-19T00:00:36;14.15;;;9.57;;
54125;SDS011;40360;52.992;6.796;2023-01-19T00:03:02;11.43;;;8.65;;
54125;SDS011;40360;52.992;6.796;2023-01-19T00:05:29;12.48;;;9.40;;
54125;SDS011;40360;52.992;6.796;2023-01-19T00:07:54;12.85;;;9.60;;
54125;SDS011;40360;52.992;6.796;2023-01-19T00:10:20;16.17;;;9.88;;
54125;SDS011;40360;52.992;6.796;2023-01-19T00:12:46;14.13;;;9.55;;
54125;SDS011;40360;52.992;6.796;2023-01-19T00:15:12;12.18;;;9.88;;
54125;SDS011;40360;52.992;6.796;2023-01-19T00:17:37;11.73;;;9.65;;
54125;SDS011;40360;52.992;6.796;2023-01-19T00:20:05;11.75;;;8.25;;
54125;SDS011;40360;52.992;6.796;2023-01-19T00:22:31;11.68;;;8.57;;
54125;SDS011;40360;52.992;6.796;2023-01-19T00:25:00;11.90;;;8.18;;
54125;SDS011;40360;52.992;6.796;2023-01-19T00:27:26;9.88;;;7.25;;
54125;SDS011;40360;52.992;6.796;2023-01-19T00:29:53;11.35;;;7.75;;
54125;SDS011;40360;52.992;6.796;2023-01-19T00:32:18;11.10;;;6.97;;
54125;SDS011;40360;52.992;6.796;2023-01-19T00:34:44;11.23;;;7.28;;
54125;SDS011;40360;52.992;6.796;2023-01-19T00:37:13;9.45;;;6.18;;
54125;SDS011;40360;52.992;6.796;2023-01-19T00:39:39;11.73;;;6.97;;
54125;SDS011;40360;52.992;6.796;2023-01-19T00:42:05;9.10;;;6.03;;
54125;SDS011;40360;52.992;6.796;2023-01-19T00:44:49;8.07;;;6.38;;
54125;SDS011;40360;52.992;6.796;2023-01-19T00:47:15;8.93;;;6.00;;
54125;SDS011;40360;52.992;6.796;2023-01-19T00:49:41;6.07;;;4.85;;
54125;SDS011;40360;52.992;6.796;2023-01-19T00:52:07;6.00;;;4.57;;
54125;SDS011;40360;52.992;6.796;2023-01-19T00:54:32;4.93;;;4.03;;
54125;SDS011;40360;52.992;6.796;2023-01-19T00:56:58;7.15;;;3.90;;
54125;SDS011;40360;52.992;6.796;2023-01-19T00:59:23;5.20;;;4.68;;
54125;SDS011;40360;52.992;6.796;2023-01-19T01:01:49;7.70;;;5.45;;
54125;SDS011;40360;52.992;6.796;2023-01-19T01:04:15;5.43;;;4.18;;
54125;SDS011;40360;52.992;6.796;2023-01-19T01:06:41;5.20;;;4.13;;
54125;SDS011;40360;52.992;6.796;2023-01-19T01:09:06;5.50;;;3.80;;
54125;SDS011;40360;52.992;6.796;2023-01-19T01:11:41;5.43;;;4.30;;
54125;SDS011;40360;52.992;6.796;2023-01-19T01:14:07;6.15;;;3.67;;
54125;SDS011;40360;52.992;6.796;2023-01-19T01:16:34;5.30;;;4.25;;
54125;SDS011;40360;52.992;6.796;2023-01-19T01:19:00;4.82;;;4.20;;
54125;SDS011;40360;52.992;6.796;2023-01-19T01:21:25;4.82;;;3.60;;
54125;SDS011;40360;52.992;6.796;2023-01-19T01:23:51;4.75;;;4.05;;
54125;SDS011;40360;52.992;6.796;2023-01-19T01:26:16;4.65;;;4.10;;
54125;SDS011;40360;52.992;6.796;2023-01-19T01:28:42;7.22;;;4.55;;
54125;SDS011;40360;52.992;6.796;2023-01-19T01:31:08;7.65;;;4.85;;
54125;SDS011;40360;52.992;6.796;2023-01-19T01:33:34;6.63;;;4.25;;
54125;SDS011;40360;52.992;6.796;2023-01-19T01:35:59;7.57;;;4.30;;
54125;SDS011;40360;52.992;6.796;2023-01-19T01:38:25;5.40;;;4.15;;
54125;SDS011;40360;52.992;6.796;2023-01-19T01:40:51;5.40;;;4.40;;
54125;SDS011;40360;52.992;6.796;2023-01-19T01:43:17;6.55;;;4.22;;
54125;SDS011;40360;52.992;6.796;2023-01-19T01:45:43;5.22;;;4.35;;
54125;SDS011;40360;52.992;6.796;2023-01-19T01:48:16;5.90;;;4.82;;
54125;SDS011;40360;52.992;6.796;2023-01-19T01:50:50;6.28;;;4.53;;
54125;SDS011;40360;52.992;6.796;2023-01-19T01:53:46;6.53;;;4.78;;
54125;SDS011;40360;52.992;6.796;2023-01-19T01:56:20;7.40;;;5.78;;
54125;SDS011;40360;52.992;6.796;2023-01-19T01:58:49;6.68;;;5.90;;
54125;SDS011;40360;52.992;6.796;2023-01-19T02:01:16;7.55;;;5.75;;
54125;SDS011;40360;52.992;6.796;2023-01-19T02:04:00;9.45;;;6.90;;
54125;SDS011;40360;52.992;6.796;2023-01-19T02:06:26;9.68;;;6.50;;
54125;SDS011;40360;52.992;6.796;2023-01-19T02:08:53;10.27;;;7.45;;
54125;SDS011;40360;52.992;6.796;2023-01-19T02:11:46;10.13;;;8.93;;
54125;SDS011;40360;52.992;6.796;2023-01-19T02:14:30;10.85;;;7.65;;
54125;SDS011;40360;52.992;6.796;2023-01-19T02:16:56;9.98;;;7.63;;
54125;SDS011;40360;52.992;6.796;2023-01-19T02:19:27;11.45;;;7.97;;
54125;SDS011;40360;52.992;6.796;2023-01-19T02:22:03;11.68;;;9.15;;
54125;SDS011;40360;52.992;6.796;2023-01-19T02:24:44;11.95;;;9.07;;
54125;SDS011;40360;52.992;6.796;2023-01-19T02:27:10;13.93;;;9.85;;
54125;SDS011;40360;52.992;6.796;2023-01-19T02:29:36;13.45;;;11.02;;
54125;SDS011;40360;52.992;6.796;2023-01-19T02:32:03;13.35;;;10.00;;
54125;SDS011;40360;52.992;6.796;2023-01-19T02:34:32;13.55;;;10.07;;
54125;SDS011;40360;52.992;6.796;2023-01-19T02:37:04;15.02;;;10.15;;
54125;SDS011;40360;52.992;6.796;2023-01-19T02:39:36;16.08;;;11.90;;
54125;SDS011;40360;52.992;6.796;2023-01-19T02:42:14;17.42;;;12.27;;
54125;SDS011;40360;52.992;6.796;2023-01-19T02:44:45;15.18;;;11.95;;
54125;SDS011;40360;52.992;6.796;2023-01-19T02:47:14;18.17;;;13.82;;
54125;SDS011;40360;52.992;6.796;2023-01-19T02:49:40;17.95;;;13.50;;
54125;SDS011;40360;52.992;6.796;2023-01-19T02:52:07;18.08;;;13.93;;
54125;SDS011;40360;52.992;6.796;2023-01-19T03:00:27;21.85;;;14.85;;
54125;SDS011;40360;52.992;6.796;2023-01-19T03:05:51;19.67;;;14.90;;
54125;SDS011;40360;52.992;6.796;2023-01-19T03:10:59;19.48;;;16.77;;
54125;SDS011;40360;52.992;6.796;2023-01-19T03:18:54;21.75;;;16.35;;
54125;SDS011;40360;52.992;6.796;2023-01-19T03:21:25;21.70;;;16.77;;
54125;SDS011;40360;52.992;6.796;2023-01-19T03:23:52;21.40;;;15.82;;
54125;SDS011;40360;52.992;6.796;2023-01-19T03:26:24;21.15;;;15.30;;
54125;SDS011;40360;52.992;6.796;2023-01-19T03:28:54;22.33;;;16.77;;
54125;SDS011;40360;52.992;6.796;2023-01-19T03:31:23;24.27;;;15.30;;
54125;SDS011;40360;52.992;6.796;2023-01-19T03:33:54;21.80;;;15.90;;
54125;SDS011;40360;52.992;6.796;2023-01-19T03:36:24;25.48;;;15.60;;
54125;SDS011;40360;52.992;6.796;2023-01-19T03:38:53;17.92;;;14.93;;
54125;SDS011;40360;52.992;6.796;2023-01-19T03:41:22;19.17;;;14.27;;
54125;SDS011;40360;52.992;6.796;2023-01-19T03:43:49;20.30;;;13.90;;
54125;SDS011;40360;52.992;6.796;2023-01-19T03:46:19;16.73;;;12.55;;
54125;SDS011;40360;52.992;6.796;2023-01-19T03:48:46;17.10;;;13.80;;
54125;SDS011;40360;52.992;6.796;2023-01-19T03:51:13;18.23;;;13.60;;
54125;SDS011;40360;52.992;6.796;2023-01-19T03:53:40;18.02;;;13.45;;
54125;SDS011;40360;52.992;6.796;2023-01-19T03:56:07;17.02;;;12.90;;
54125;SDS011;40360;52.992;6.796;2023-01-19T03:58:49;14.18;;;11.10;;
54125;SDS011;40360;52.992;6.796;2023-01-19T04:01:16;16.92;;;12.93;;
54125;SDS011;40360;52.992;6.796;2023-01-19T04:03:47;13.95;;;11.23;;
54125;SDS011;40360;52.992;6.796;2023-01-19T04:06:14;13.43;;;11.15;;
54125;SDS011;40360;52.992;6.796;2023-01-19T04:08:40;13.65;;;10.70;;
54125;SDS011;40360;52.992;6.796;2023-01-19T04:11:05;14.68;;;11.00;;
54125;SDS011;40360;52.992;6.796;2023-01-19T04:13:32;13.27;;;10.27;;
54125;SDS011;40360;52.992;6.796;2023-01-19T04:15:59;13.45;;;9.55;;
54125;SDS011;40360;52.992;6.796;2023-01-19T04:18:26;12.98;;;9.75;;
54125;SDS011;40360;52.992;6.796;2023-01-19T04:20:52;12.02;;;9.95;;
54125;SDS011;40360;52.992;6.796;2023-01-19T04:23:18;11.98;;;9.75;;
54125;SDS011;40360;52.992;6.796;2023-01-19T04:25:44;12.32;;;9.13;;
54125;SDS011;40360;52.992;6.796;2023-01-19T04:28:10;10.73;;;9.18;;
54125;SDS011;40360;52.992;6.796;2023-01-19T04:30:36;11.48;;;9.18;;
54125;SDS011;40360;52.992;6.796;2023-01-19T04:33:02;11.15;;;8.77;;
54125;SDS011;40360;52.992;6.796;2023-01-19T04:35:28;11.63;;;8.02;;
54125;SDS011;40360;52.992;6.796;2023-01-19T04:37:53;11.75;;;9.20;;
54125;SDS011;40360;52.992;6.796;2023-01-19T04:40:19;11.77;;;9.25;;
54125;SDS011;40360;52.992;6.796;2023-01-19T04:42:45;13.38;;;9.23;;
54125;SDS011;40360;52.992;6.796;2023-01-19T04:45:11;12.07;;;8.88;;
54125;SDS011;40360;52.992;6.796;2023-01-19T04:47:38;12.77;;;8.65;;
54125;SDS011;40360;52.992;6.796;2023-01-19T04:50:04;12.25;;;8.65;;
54125;SDS011;40360;52.992;6.796;2023-01-19T04:52:34;13.57;;;8.93;;
54125;SDS011;40360;52.992;6.796;2023-01-19T04:55:00;11.35;;;8.25;;
54125;SDS011;40360;52.992;6.796;2023-01-19T04:57:27;12.80;;;8.60;;
54125;SDS011;40360;52.992;6.796;2023-01-19T04:59:54;13.07;;;9.07;;
54125;SDS011;40360;52.992;6.796;2023-01-19T05:02:20;12.55;;;9.25;;
54125;SDS011;40360;52.992;6.796;2023-01-19T05:20:57;10.07;;;6.15;;
54125;SDS011;40360;52.992;6.796;2023-01-19T05:23:23;12.07;;;6.18;;
54125;SDS011;40360;52.992;6.796;2023-01-19T05:25:48;11.07;;;6.50;;
54125;SDS011;40360;52.992;6.796;2023-01-19T05:28:14;8.63;;;4.88;;
54125;SDS011;40360;52.992;6.796;2023-01-19T05:30:40;10.75;;;6.10;;
54125;SDS011;40360;52.992;6.796;2023-01-19T05:33:06;10.02;;;5.53;;
54125;SDS011;40360;52.992;6.796;2023-01-19T05:35:34;11.43;;;5.70;;
54125;SDS011;40360;52.992;6.796;2023-01-19T05:38:02;12.80;;;7.45;;
54125;SDS011;40360;52.992;6.796;2023-01-19T05:40:28;10.00;;;5.40;;
54125;SDS011;40360;52.992;6.796;2023-01-19T05:42:53;9.27;;;5.30;;
54125;SDS011;40360;52.992;6.796;2023-01-19T05:45:19;8.95;;;5.35;;
54125;SDS011;40360;52.992;6.796;2023-01-19T05:47:45;8.23;;;4.65;;
54125;SDS011;40360;52.992;6.796;2023-01-19T05:50:10;12.15;;;4.88;;
54125;SDS011;40360;52.992;6.796;2023-01-19T05:52:36;7.57;;;4.35;;
54125;SDS011;40360;52.992;6.796;2023-01-19T05:55:01;8.55;;;4.30;;
54125;SDS011;40360;52.992;6.796;2023-01-19T05:57:27;6.90;;;3.63;;
54125;SDS011;40360;52.992;6.796;2023-01-19T05:59:53;8.93;;;3.88;;
54125;SDS011;40360;52.992;6.796;2023-01-19T06:02:18;7.97;;;3.67;;
54125;SDS011;40360;52.992;6.796;2023-01-19T06:04:44;8.25;;;3.58;;
54125;SDS011;40360;52.992;6.796;2023-01-19T06:07:09;6.85;;;3.35;;
54125;SDS011;40360;52.992;6.796;2023-01-19T06:09:35;8.98;;;3.20;;
54125;SDS011;40360;52.992;6.796;2023-01-19T06:12:01;6.32;;;3.20;;
54125;SDS011;40360;52.992;6.796;2023-01-19T06:14:26;8.43;;;3.72;;
54125;SDS011;40360;52.992;6.796;2023-01-19T06:16:52;4.80;;;2.70;;
54125;SDS011;40360;52.992;6.796;2023-01-19T06:19:18;12.18;;;2.88;;
54125;SDS011;40360;52.992;6.796;2023-01-19T06:21:43;9.50;;;2.72;;
54125;SDS011;40360;52.992;6.796;2023-01-19T06:24:14;10.50;;;2.65;;
54125;SDS011;40360;52.992;6.796;2023-01-19T06:26:40;9.48;;;2.20;;
54125;SDS011;40360;52.992;6.796;2023-01-19T06:29:07;5.40;;;1.83;;
54125;SDS011;40360;52.992;6.796;2023-01-19T06:31:35;4.65;;;1.90;;
54125;SDS011;40360;52.992;6.796;2023-01-19T06:34:01;6.97;;;2.05;;
54125;SDS011;40360;52.992;6.796;2023-01-19T06:36:27;12.85;;;2.13;;
54125;SDS011;40360;52.992;6.796;2023-01-19T06:38:53;5.28;;;1.38;;
54125;SDS011;40360;52.992;6.796;2023-01-19T06:41:18;3.63;;;1.50;;
54125;SDS011;40360;52.992;6.796;2023-01-19T06:43:44;5.97;;;1.50;;
54125;SDS011;40360;52.992;6.796;2023-01-19T06:46:10;7.30;;;1.88;;
54125;SDS011;40360;52.992;6.796;2023-01-19T06:48:36;5.25;;;1.48;;
54125;SDS011;40360;52.992;6.796;2023-01-19T06:51:01;5.15;;;1.42;;
54125;SDS011;40360;52.992;6.796;2023-01-19T06:53:27;7.65;;;1.85;;
54125;SDS011;40360;52.992;6.796;2023-01-19T06:55:57;7.25;;;1.73;;
54125;SDS011;40360;52.992;6.796;2023-01-19T06:58:27;6.35;;;2.25;;
54125;SDS011;40360;52.992;6.796;2023-01-19T07:00:54;5.03;;;2.53;;
54125;SDS011;40360;52.992;6.796;2023-01-19T07:03:24;4.32;;;1.30;;
54125;SDS011;40360;52.992;6.796;2023-01-19T07:05:50;2.10;;;0.98;;
54125;SDS011;40360;52.992;6.796;2023-01-19T07:08:16;6.05;;;1.00;;
54125;SDS011;40360;52.992;6.796;2023-01-19T07:10:42;6.22;;;1.70;;
54125;SDS011;40360;52.992;6.796;2023-01-19T07:13:08;5.50;;;1.30;;
54125;SDS011;40360;52.992;6.796;2023-01-19T07:15:34;5.38;;;1.27;;
54125;SDS011;40360;52.992;6.796;2023-01-19T07:18:01;5.07;;;1.35;;
54125;SDS011;40360;52.992;6.796;2023-01-19T07:20:32;5.90;;;1.70;;
54125;SDS011;40360;52.992;6.796;2023-01-19T07:22:58;5.05;;;1.20;;
54125;SDS011;40360;52.992;6.796;2023-01-19T07:25:24;8.80;;;1.27;;
54125;SDS011;40360;52.992;6.796;2023-01-19T07:27:51;5.80;;;1.92;;
54125;SDS011;40360;52.992;6.796;2023-01-19T07:30:20;6.53;;;1.73;;
54125;SDS011;40360;52.992;6.796;2023-01-19T07:32:45;6.88;;;1.90;;
54125;SDS011;40360;52.992;6.796;2023-01-19T07:35:11;6.57;;;1.65;;
54125;SDS011;40360;52.992;6.796;2023-01-19T07:37:36;6.43;;;1.83;;
54125;SDS011;40360;52.992;6.796;2023-01-19T07:40:02;7.50;;;1.30;;
54125;SDS011;40360;52.992;6.796;2023-01-19T07:42:28;8.00;;;2.03;;
54125;SDS011;40360;52.992;6.796;2023-01-19T07:44:54;6.10;;;1.50;;
54125;SDS011;40360;52.992;6.796;2023-01-19T07:47:19;11.95;;;1.45;;
54125;SDS011;40360;52.992;6.796;2023-01-19T07:49:45;9.70;;;1.83;;
54125;SDS011;40360;52.992;6.796;2023-01-19T07:52:10;9.43;;;1.52;;
54125;SDS011;40360;52.992;6.796;2023-01-19T07:54:36;12.57;;;1.67;;
54125;SDS011;40360;52.992;6.796;2023-01-19T07:57:02;9.70;;;1.67;;
54125;SDS011;40360;52.992;6.796;2023-01-19T07:59:29;6.18;;;1.48;;
54125;SDS011;40360;52.992;6.796;2023-01-19T08:01:56;13.25;;;1.65;;
54125;SDS011;40360;52.992;6.796;2023-01-19T08:04:26;6.70;;;1.30;;
54125;SDS011;40360;52.992;6.796;2023-01-19T08:06:52;8.80;;;1.70;;
54125;SDS011;40360;52.992;6.796;2023-01-19T08:09:19;8.10;;;1.67;;
54125;SDS011;40360;52.992;6.796;2023-01-19T08:11:45;13.40;;;1.77;;
54125;SDS011;40360;52.992;6.796;2023-01-19T08:14:10;8.88;;;1.90;;
54125;SDS011;40360;52.992;6.796;2023-01-19T08:16:36;11.07;;;1.80;;
54125;SDS011;40360;52.992;6.796;2023-01-19T08:19:02;14.30;;;2.00;;
54125;SDS011;40360;52.992;6.796;2023-01-19T08:21:28;14.02;;;2.25;;
54125;SDS011;40360;52.992;6.796;2023-01-19T08:23:54;14.80;;;2.53;;
54125;SDS011;40360;52.992;6.796;2023-01-19T08:26:25;22.63;;;2.53;;
54125;SDS011;40360;52.992;6.796;2023-01-19T08:28:56;12.75;;;2.35;;
54125;SDS011;40360;52.992;6.796;2023-01-19T08:31:26;9.40;;;2.00;;
54125;SDS011;40360;52.992;6.796;2023-01-19T08:33:52;16.02;;;2.53;;
54125;SDS011;40360;52.992;6.796;2023-01-19T08:36:19;7.72;;;1.80;;
54125;SDS011;40360;52.992;6.796;2023-01-19T08:38:46;14.30;;;2.00;;
54125;SDS011;40360;52.992;6.796;2023-01-19T08:41:12;12.10;;;2.55;;
54125;SDS011;40360;52.992;6.796;2023-01-19T08:43:40;9.40;;;1.70;;
54125;SDS011;40360;52.992;6.796;2023-01-19T08:46:06;14.00;;;2.08;;
54125;SDS011;40360;52.992;6.796;2023-01-19T08:48:31;13.55;;;3.40;;
54125;SDS011;40360;52.992;6.796;2023-01-19T08:50:57;18.42;;;2.65;;
54125;SDS011;40360;52.992;6.796;2023-01-19T08:53:24;15.27;;;3.10;;
54125;SDS011;40360;52.992;6.796;2023-01-19T08:55:53;11.70;;;2.67;;
54125;SDS011;40360;52.992;6.796;2023-01-19T08:58:21;11.13;;;2.75;;
54125;SDS011;40360;52.992;6.796;2023-01-19T09:00:48;16.45;;;2.83;;
54125;SDS011;40360;52.992;6.796;2023-01-19T09:03:16;9.80;;;2.63;;
54125;SDS011;40360;52.992;6.796;2023-01-19T09:05:43;11.73;;;1.90;;
54125;SDS011;40360;52.992;6.796;2023-01-19T09:08:09;12.90;;;2.95;;
54125;SDS011;40360;52.992;6.796;2023-01-19T09:10:37;12.15;;;2.83;;
54125;SDS011;40360;52.992;6.796;2023-01-19T09:13:04;15.55;;;2.97;;
54125;SDS011;40360;52.992;6.796;2023-01-19T09:15:35;16.80;;;2.17;;
54125;SDS011;40360;52.992;6.796;2023-01-19T09:18:06;16.95;;;2.72;;
54125;SDS011;40360;52.992;6.796;2023-01-19T09:20:34;15.15;;;2.60;;
54125;SDS011;40360;52.992;6.796;2023-01-19T09:23:02;11.20;;;1.92;;
54125;SDS011;40360;52.992;6.796;2023-01-19T09:25:29;13.43;;;2.95;;
54125;SDS011;40360;52.992;6.796;2023-01-19T09:27:55;13.45;;;2.70;;
54125;SDS011;40360;52.992;6.796;2023-01-19T09:30:20;12.85;;;3.13;;
54125;SDS011;40360;52.992;6.796;2023-01-19T09:32:46;11.57;;;2.47;;
54125;SDS011;40360;52.992;6.796;2023-01-19T09:35:12;11.75;;;2.83;;
54125;SDS011;40360;52.992;6.796;2023-01-19T09:37:37;16.45;;;3.20;;
54125;SDS011;40360;52.992;6.796;2023-01-19T09:40:04;23.77;;;3.97;;
54125;SDS011;40360;52.992;6.796;2023-01-19T09:44:58;9.52;;;2.70;;
54125;SDS011;40360;52.992;6.796;2023-01-19T09:47:26;19.05;;;2.92;;
54125;SDS011;40360;52.992;6.796;2023-01-19T09:49:57;19.35;;;3.63;;
54125;SDS011;40360;52.992;6.796;2023-01-19T09:52:30;21.90;;;3.83;;
54125;SDS011;40360;52.992;6.796;2023-01-19T09:54:59;9.60;;;2.35;;
54125;SDS011;40360;52.992;6.796;2023-01-19T09:57:25;16.73;;;3.03;;
54125;SDS011;40360;52.992;6.796;2023-01-19T09:59:51;16.35;;;2.22;;
54125;SDS011;40360;52.992;6.796;2023-01-19T10:02:35;12.38;;;3.40;;
54125;SDS011;40360;52.992;6.796;2023-01-19T10:05:16;17.52;;;3.67;;
54125;SDS011;40360;52.992;6.796;2023-01-19T10:08:09;23.13;;;4.28;;
54125;SDS011;40360;52.992;6.796;2023-01-19T10:10:57;16.55;;;2.70;;
54125;SDS011;40360;52.992;6.796;2023-01-19T10:13:40;17.30;;;2.28;;
54125;SDS011;40360;52.992;6.796;2023-01-19T10:18:57;20.98;;;3.40;;
54125;SDS011;40360;52.992;6.796;2023-01-19T10:21:27;26.77;;;3.28;;
54125;SDS011;40360;52.992;6.796;2023-01-19T10:26:28;14.07;;;3.03;;
54125;SDS011;40360;52.992;6.796;2023-01-19T10:29:01;17.73;;;2.72;;
54125;SDS011;40360;52.992;6.796;2023-01-19T10:31:29;10.88;;;2.30;;
54125;SDS011;40360;52.992;6.796;2023-01-19T10:33:58;15.77;;;2.78;;
54125;SDS011;40360;52.992;6.796;2023-01-19T10:36:34;26.80;;;4.90;;
54125;SDS011;40360;52.992;6.796;2023-01-19T10:39:02;13.25;;;2.72;;
54125;SDS011;40360;52.992;6.796;2023-01-19T10:44:06;12.85;;;2.55;;
54125;SDS011;40360;52.992;6.796;2023-01-19T10:46:47;16.58;;;3.97;;
54125;SDS011;40360;52.992;6.796;2023-01-19T10:49:47;15.32;;;2.58;;
54125;SDS011;40360;52.992;6.796;2023-01-19T10:54:49;13.77;;;4.32;;
54125;SDS011;40360;52.992;6.796;2023-01-19T10:57:24;10.15;;;2.33;;
54125;SDS011;40360;52.992;6.796;2023-01-19T10:59:52;9.45;;;2.13;;
54125;SDS011;40360;52.992;6.796;2023-01-19T11:02:25;12.82;;;2.50;;
54125;SDS011;40360;52.992;6.796;2023-01-19T11:04:54;17.55;;;2.67;;
54125;SDS011;40360;52.992;6.796;2023-01-19T11:07:30;15.48;;;2.85;;
54125;SDS011;40360;52.992;6.796;2023-01-19T11:13:09;13.82;;;2.33;;
54125;SDS011;40360;52.992;6.796;2023-01-19T11:15:40;9.75;;;2.10;;
54125;SDS011;40360;52.992;6.796;2023-01-19T11:18:17;6.55;;;2.22;;
54125;SDS011;40360;52.992;6.796;2023-01-19T11:20:50;11.20;;;3.08;;
54125;SDS011;40360;52.992;6.796;2023-01-19T11:25:49;12.95;;;2.47;;
54125;SDS011;40360;52.992;6.796;2023-01-19T11:28:17;11.25;;;2.20;;
54125;SDS011;40360;52.992;6.796;2023-01-19T11:30:58;12.25;;;2.35;;
54125;SDS011;40360;52.992;6.796;2023-01-19T11:33:48;11.10;;;2.25;;
54125;SDS011;40360;52.992;6.796;2023-01-19T11:36:22;12.60;;;2.88;;
54125;SDS011;40360;52.992;6.796;2023-01-19T11:38:53;14.13;;;2.92;;
54125;SDS011;40360;52.992;6.796;2023-01-19T11:41:36;13.02;;;2.33;;
54125;SDS011;40360;52.992;6.796;2023-01-19T11:44:15;16.42;;;2.72;;
54125;SDS011;40360;52.992;6.796;2023-01-19T11:46:45;9.82;;;1.83;;
54125;SDS011;40360;52.992;6.796;2023-01-19T11:52:14;12.93;;;1.50;;
54125;SDS011;40360;52.992;6.796;2023-01-19T11:55:02;10.05;;;1.73;;
54125;SDS011;40360;52.992;6.796;2023-01-19T11:57:45;11.77;;;2.97;;
54125;SDS011;40360;52.992;6.796;2023-01-19T12:00:21;7.82;;;2.03;;
54125;SDS011;40360;52.992;6.796;2023-01-19T12:02:54;7.40;;;1.15;;
54125;SDS011;40360;52.992;6.796;2023-01-19T12:05:28;10.02;;;1.90;;
54125;SDS011;40360;52.992;6.796;2023-01-19T12:07:57;8.32;;;1.60;;
54125;SDS011;40360;52.992;6.796;2023-01-19T12:10:27;11.05;;;2.20;;
54125;SDS011;40360;52.992;6.796;2023-01-19T12:12:55;7.07;;;1.40;;
54125;SDS011;40360;52.992;6.796;2023-01-19T12:15:29;9.45;;;1.40;;
54125;SDS011;40360;52.992;6.796;2023-01-19T12:17:59;13.15;;;2.42;;
54125;SDS011;40360;52.992;6.796;2023-01-19T12:21:09;8.63;;;1.85;;
54125;SDS011;40360;52.992;6.796;2023-01-19T12:28:49;7.10;;;1.45;;
54125;SDS011;40360;52.992;6.796;2023-01-19T12:31:17;6.60;;;1.17;;
54125;SDS011;40360;52.992;6.796;2023-01-19T12:33:44;9.20;;;1.45;;
54125;SDS011;40360;52.992;6.796;2023-01-19T12:39:14;6.25;;;1.00;;
54125;SDS011;40360;52.992;6.796;2023-01-19T12:41:43;7.20;;;1.73;;
54125;SDS011;40360;52.992;6.796;2023-01-19T12:46:45;7.47;;;1.38;;
54125;SDS011;40360;52.992;6.796;2023-01-19T13:00:00;6.57;;;1.52;;
54125;SDS011;40360;52.992;6.796;2023-01-19T13:02:44;4.70;;;1.52;;
54125;SDS011;40360;52.992;6.796;2023-01-19T13:13:36;9.10;;;1.90;;
54125;SDS011;40360;52.992;6.796;2023-01-19T13:18:50;3.75;;;1.05;;
54125;SDS011;40360;52.992;6.796;2023-01-19T13:24:04;4.68;;;1.13;;
54125;SDS011;40360;52.992;6.796;2023-01-19T13:26:39;6.20;;;1.15;;
54125;SDS011;40360;52.992;6.796;2023-01-19T13:29:07;5.22;;;1.00;;
54125;SDS011;40360;52.992;6.796;2023-01-19T13:31:39;7.65;;;1.10;;
54125;SDS011;40360;52.992;6.796;2023-01-19T13:34:14;4.80;;;0.85;;
54125;SDS011;40360;52.992;6.796;2023-01-19T13:36:46;7.75;;;2.00;;
54125;SDS011;40360;52.992;6.796;2023-01-19T13:41:58;4.35;;;1.08;;
54125;SDS011;40360;52.992;6.796;2023-01-19T13:44:27;7.10;;;1.35;;
54125;SDS011;40360;52.992;6.796;2023-01-19T13:46:56;6.22;;;1.33;;
54125;SDS011;40360;52.992;6.796;2023-01-19T13:49:37;7.15;;;1.20;;
54125;SDS011;40360;52.992;6.796;2023-01-19T13:52:14;7.43;;;1.17;;
54125;SDS011;40360;52.992;6.796;2023-01-19T13:54:49;6.20;;;1.08;;
54125;SDS011;40360;52.992;6.796;2023-01-19T14:02:36;4.35;;;1.05;;
54125;SDS011;40360;52.992;6.796;2023-01-19T14:10:35;7.32;;;1.58;;
54125;SDS011;40360;52.992;6.796;2023-01-19T14:13:05;9.60;;;1.30;;
54125;SDS011;40360;52.992;6.796;2023-01-19T14:15:38;7.20;;;1.15;;
54125;SDS011;40360;52.992;6.796;2023-01-19T14:20:36;6.43;;;1.25;;
54125;SDS011;40360;52.992;6.796;2023-01-19T14:23:03;8.27;;;2.88;;
54125;SDS011;40360;52.992;6.796;2023-01-19T14:25:30;9.68;;;2.22;;
54125;SDS011;40360;52.992;6.796;2023-01-19T14:30:55;4.07;;;1.05;;
54125;SDS011;40360;52.992;6.796;2023-01-19T14:33:32;5.07;;;0.90;;
54125;SDS011;40360;52.992;6.796;2023-01-19T14:36:09;5.15;;;0.98;;
54125;SDS011;40360;52.992;6.796;2023-01-19T14:38:41;10.50;;;1.33;;
54125;SDS011;40360;52.992;6.796;2023-01-19T14:41:08;8.63;;;2.13;;
54125;SDS011;40360;52.992;6.796;2023-01-19T14:43:35;4.75;;;1.25;;
54125;SDS011;40360;52.992;6.796;2023-01-19T14:46:04;2.95;;;0.90;;
54125;SDS011;40360;52.992;6.796;2023-01-19T14:48:29;5.10;;;1.10;;
54125;SDS011;40360;52.992;6.796;2023-01-19T14:51:02;4.95;;;1.25;;
54125;SDS011;40360;52.992;6.796;2023-01-19T14:53:34;6.70;;;1.02;;
54125;SDS011;40360;52.992;6.796;2023-01-19T14:56:02;7.40;;;2.05;;
54125;SDS011;40360;52.992;6.796;2023-01-19T14:58:30;6.45;;;1.00;;
54125;SDS011;40360;52.992;6.796;2023-01-19T15:00:57;13.82;;;2.05;;
54125;SDS011;40360;52.992;6.796;2023-01-19T15:03:24;6.28;;;2.42;;
54125;SDS011;40360;52.992;6.796;2023-01-19T15:05:51;5.47;;;1.20;;
54125;SDS011;40360;52.992;6.796;2023-01-19T15:08:22;5.93;;;1.13;;
54125;SDS011;40360;52.992;6.796;2023-01-19T15:10:54;6.38;;;1.30;;
54125;SDS011;40360;52.992;6.796;2023-01-19T15:13:20;6.40;;;1.73;;
54125;SDS011;40360;52.992;6.796;2023-01-19T15:15:48;4.95;;;1.00;;
54125;SDS011;40360;52.992;6.796;2023-01-19T15:18:16;4.80;;;1.10;;
54125;SDS011;40360;52.992;6.796;2023-01-19T15:20:46;6.63;;;1.20;;
54125;SDS011;40360;52.992;6.796;2023-01-19T15:23:11;8.00;;;1.33;;
54125;SDS011;40360;52.992;6.796;2023-01-19T15:25:38;5.35;;;1.40;;
54125;SDS011;40360;52.992;6.796;2023-01-19T15:28:10;6.55;;;1.10;;
54125;SDS011;40360;52.992;6.796;2023-01-19T15:30:38;4.15;;;1.13;;
54125;SDS011;40360;52.992;6.796;2023-01-19T15:33:04;4.00;;;0.90;;
54125;SDS011;40360;52.992;6.796;2023-01-19T15:35:29;10.32;;;1.20;;
54125;SDS011;40360;52.992;6.796;2023-01-19T15:37:55;6.13;;;1.42;;
54125;SDS011;40360;52.992;6.796;2023-01-19T15:40:21;6.88;;;1.17;;
54125;SDS011;40360;52.992;6.796;2023-01-19T15:42:47;10.50;;;1.27;;
54125;SDS011;40360;52.992;6.796;2023-01-19T15:47:59;6.43;;;1.50;;
54125;SDS011;40360;52.992;6.796;2023-01-19T15:50:26;4.82;;;1.05;;
54125;SDS011;40360;52.992;6.796;2023-01-19T15:52:52;5.38;;;1.20;;
54125;SDS011;40360;52.992;6.796;2023-01-19T15:55:18;6.97;;;1.50;;
54125;SDS011;40360;52.992;6.796;2023-01-19T15:57:44;7.35;;;1.65;;
54125;SDS011;40360;52.992;6.796;2023-01-19T16:00:10;4.82;;;0.90;;
54125;SDS011;40360;52.992;6.796;2023-01-19T16:02:36;6.53;;;1.55;;
54125;SDS011;40360;52.992;6.796;2023-01-19T16:05:02;6.03;;;1.52;;
54125;SDS011;40360;52.992;6.796;2023-01-19T16:07:28;7.15;;;1.30;;
54125;SDS011;40360;52.992;6.796;2023-01-19T16:09:54;9.60;;;1.10;;
54125;SDS011;40360;52.992;6.796;2023-01-19T16:12:19;6.70;;;1.10;;
54125;SDS011;40360;52.992;6.796;2023-01-19T16:14:45;6.45;;;1.33;;
54125;SDS011;40360;52.992;6.796;2023-01-19T16:17:10;7.38;;;1.65;;
54125;SDS011;40360;52.992;6.796;2023-01-19T16:19:36;5.50;;;1.30;;
54125;SDS011;40360;52.992;6.796;2023-01-19T16:22:01;8.68;;;1.60;;
54125;SDS011;40360;52.992;6.796;2023-01-19T16:24:29;6.70;;;1.10;;
54125;SDS011;40360;52.992;6.796;2023-01-19T16:26:55;6.18;;;1.48;;
54125;SDS011;40360;52.992;6.796;2023-01-19T16:29:21;3.88;;;1.15;;
54125;SDS011;40360;52.992;6.796;2023-01-19T16:31:46;6.18;;;1.40;;
54125;SDS011;40360;52.992;6.796;2023-01-19T16:34:12;5.65;;;1.65;;
54125;SDS011;40360;52.992;6.796;2023-01-19T16:36:38;6.25;;;1.50;;
54125;SDS011;40360;52.992;6.796;2023-01-19T16:39:07;5.78;;;1.60;;
54125;SDS011;40360;52.992;6.796;2023-01-19T16:41:35;8.57;;;1.88;;